sensor_id;sensor_type;location;lat;lon;timestamp;pressure;altitude;pressure_sealevel;temperature;humidity
51759;BME280;66684;47.568;18.734;2023-06-24T00:00:09;99644.69;;;17.20;100.00
51759;BME280;66684;47.568;18.734;2023-06-24T00:02:37;99636.97;;;17.27;100.00
51759;BME280;66684;47.568;18.734;2023-06-24T00:05:04;99645.66;;;17.26;100.00
51759;BME280;66684;47.568;18.734;2023-06-24T00:07:32;99648.38;;;17.34;100.00
51759;BME280;66684;47.568;18.734;2023-06-24T00:09:58;99657.94;;;17.31;100.00
51759;BME280;66684;47.568;18.734;2023-06-24T00:12:24;99668.25;;;17.23;100.00
51759;BME280;66684;47.568;18.734;2023-06-24T00:14:50;99676.00;;;17.17;100.00
51759;BME280;66684;47.568;18.734;2023-06-24T00:17:16;99671.59;;;17.14;100.00
51759;BME280;66684;47.568;18.734;2023-06-24T00:19:42;99667.22;;;17.13;100.00
51759;BME280;66684;47.568;18.734;2023-06-24T00:22:09;99658.41;;;17.04;100.00
51759;BME280;66684;47.568;18.734;2023-06-24T00:24:35;99643.53;;;16.98;100.00
51759;BME280;66684;47.568;18.734;2023-06-24T00:27:01;99628.63;;;16.92;100.00
51759;BME280;66684;47.568;18.734;2023-06-24T00:29:27;99623.56;;;17.03;100.00
51759;BME280;66684;47.568;18.734;2023-06-24T00:31:53;99631.38;;;17.03;100.00
51759;BME280;66684;47.568;18.734;2023-06-24T00:34:19;99644.53;;;17.09;100.00
51759;BME280;66684;47.568;18.734;2023-06-24T00:36:46;99633.16;;;17.04;100.00
51759;BME280;66684;47.568;18.734;2023-06-24T00:39:12;99646.25;;;17.06;100.00
51759;BME280;66684;47.568;18.734;2023-06-24T00:41:38;99642.78;;;17.08;100.00
51759;BME280;66684;47.568;18.734;2023-06-24T00:44:04;99654.94;;;17.05;100.00
51759;BME280;66684;47.568;18.734;2023-06-24T00:46:30;99652.31;;;17.05;100.00
51759;BME280;66684;47.568;18.734;2023-06-24T00:48:59;99654.78;;;16.95;100.00
51759;BME280;66684;47.568;18.734;2023-06-24T00:51:26;99645.22;;;16.96;100.00
51759;BME280;66684;47.568;18.734;2023-06-24T00:53:57;99639.09;;;16.94;100.00
51759;BME280;66684;47.568;18.734;2023-06-24T00:56:28;99641.09;;;17.10;100.00
51759;BME280;66684;47.568;18.734;2023-06-24T00:58:55;99636.66;;;17.05;100.00
51759;BME280;66684;47.568;18.734;2023-06-24T01:01:23;99633.00;;;16.95;100.00
51759;BME280;66684;47.568;18.734;2023-06-24T01:03:49;99618.09;;;16.86;100.00
51759;BME280;66684;47.568;18.734;2023-06-24T01:06:15;99608.47;;;16.84;100.00
51759;BME280;66684;47.568;18.734;2023-06-24T01:08:41;99606.69;;;16.80;100.00
51759;BME280;66684;47.568;18.734;2023-06-24T01:11:07;99601.50;;;16.81;100.00
51759;BME280;66684;47.568;18.734;2023-06-24T01:13:33;99604.22;;;16.89;100.00
51759;BME280;66684;47.568;18.734;2023-06-24T01:16:03;99599.84;;;16.88;100.00
51759;BME280;66684;47.568;18.734;2023-06-24T01:18:38;99611.13;;;16.85;100.00
51759;BME280;66684;47.568;18.734;2023-06-24T01:29:28;99606.81;;;16.89;100.00
51759;BME280;66684;47.568;18.734;2023-06-24T01:37:19;99606.63;;;16.77;100.00
51759;BME280;66684;47.568;18.734;2023-06-24T01:39:56;99597.78;;;16.68;100.00
51759;BME280;66684;47.568;18.734;2023-06-24T01:42:23;99601.41;;;16.75;100.00
51759;BME280;66684;47.568;18.734;2023-06-24T01:44:49;99604.03;;;16.77;100.00
51759;BME280;66684;47.568;18.734;2023-06-24T01:47:20;99593.56;;;16.75;100.00
51759;BME280;66684;47.568;18.734;2023-06-24T01:49:49;99583.88;;;16.69;100.00
51759;BME280;66684;47.568;18.734;2023-06-24T01:52:20;99583.88;;;16.69;100.00
51759;BME280;66684;47.568;18.734;2023-06-24T01:54:47;99582.13;;;16.68;100.00
51759;BME280;66684;47.568;18.734;2023-06-24T01:57:15;99581.13;;;16.60;100.00
51759;BME280;66684;47.568;18.734;2023-06-24T01:59:44;99575.06;;;16.61;100.00
51759;BME280;66684;47.568;18.734;2023-06-24T02:02:12;99573.16;;;16.51;100.00
51759;BME280;66684;47.568;18.734;2023-06-24T02:04:39;99574.75;;;16.43;100.00
51759;BME280;66684;47.568;18.734;2023-06-24T02:07:05;99577.34;;;16.41;100.00
51759;BME280;66684;47.568;18.734;2023-06-24T02:09:33;99590.41;;;16.43;100.00
51759;BME280;66684;47.568;18.734;2023-06-24T02:12:01;99595.88;;;16.58;100.00
51759;BME280;66684;47.568;18.734;2023-06-24T02:14:29;99613.59;;;16.78;100.00
51759;BME280;66684;47.568;18.734;2023-06-24T02:16:58;99607.06;;;16.53;100.00
51759;BME280;66684;47.568;18.734;2023-06-24T02:19:29;99595.53;;;16.37;100.00
51759;BME280;66684;47.568;18.734;2023-06-24T02:21:56;99590.13;;;16.28;100.00
51759;BME280;66684;47.568;18.734;2023-06-24T02:24:23;99584.19;;;16.35;100.00
51759;BME280;66684;47.568;18.734;2023-06-24T02:26:50;99594.53;;;16.29;100.00
51759;BME280;66684;47.568;18.734;2023-06-24T02:29:17;99587.59;;;16.32;100.00
51759;BME280;66684;47.568;18.734;2023-06-24T02:31:44;99590.13;;;16.28;100.00
51759;BME280;66684;47.568;18.734;2023-06-24T02:34:09;99601.59;;;16.36;100.00
51759;BME280;66684;47.568;18.734;2023-06-24T02:36:35;99606.19;;;16.52;100.00
51759;BME280;66684;47.568;18.734;2023-06-24T02:39:02;99613.13;;;16.50;100.00
51759;BME280;66684;47.568;18.734;2023-06-24T02:41:28;99615.75;;;16.52;100.00
51759;BME280;66684;47.568;18.734;2023-06-24T02:43:53;99612.00;;;16.34;100.00
51759;BME280;66684;47.568;18.734;2023-06-24T02:46:20;99616.28;;;16.31;100.00
51759;BME280;66684;47.568;18.734;2023-06-24T02:48:48;99608.59;;;16.40;100.00
51759;BME280;66684;47.568;18.734;2023-06-24T02:51:15;99618.66;;;16.18;100.00
51759;BME280;66684;47.568;18.734;2023-06-24T02:53:42;99617.66;;;16.10;100.00
51759;BME280;66684;47.568;18.734;2023-06-24T02:56:09;99608.91;;;16.08;100.00
51759;BME280;66684;47.568;18.734;2023-06-24T02:58:36;99608.91;;;16.08;100.00
51759;BME280;66684;47.568;18.734;2023-06-24T03:01:03;99606.59;;;16.24;100.00
51759;BME280;66684;47.568;18.734;2023-06-24T03:03:34;99605.66;;;16.22;100.00
51759;BME280;66684;47.568;18.734;2023-06-24T03:06:01;99603.91;;;16.21;100.00
51759;BME280;66684;47.568;18.734;2023-06-24T03:08:28;99592.59;;;16.18;100.00
51759;BME280;66684;47.568;18.734;2023-06-24T03:10:55;99603.03;;;16.20;100.00
51759;BME280;66684;47.568;18.734;2023-06-24T03:13:22;99618.66;;;16.18;100.00
51759;BME280;66684;47.568;18.734;2023-06-24T03:15:48;99626.47;;;16.18;100.00
51759;BME280;66684;47.568;18.734;2023-06-24T03:18:15;99633.53;;;16.23;100.00
51759;BME280;66684;47.568;18.734;2023-06-24T03:20:41;99638.66;;;16.19;100.00
51759;BME280;66684;47.568;18.734;2023-06-24T03:23:07;99633.44;;;16.18;100.00
51759;BME280;66684;47.568;18.734;2023-06-24T03:25:34;99640.53;;;16.27;100.00
51759;BME280;66684;47.568;18.734;2023-06-24T03:28:01;99638.84;;;16.29;100.00
51759;BME280;66684;47.568;18.734;2023-06-24T03:30:29;99636.06;;;16.21;100.00
51759;BME280;66684;47.568;18.734;2023-06-24T03:32:55;99631.69;;;16.18;100.00
51759;BME280;66684;47.568;18.734;2023-06-24T03:35:23;99632.59;;;16.21;100.00
51759;BME280;66684;47.568;18.734;2023-06-24T03:37:49;99633.41;;;16.16;100.00
51759;BME280;66684;47.568;18.734;2023-06-24T03:40:15;99626.47;;;16.18;100.00
51759;BME280;66684;47.568;18.734;2023-06-24T03:42:41;99641.34;;;16.23;100.00
51759;BME280;66684;47.568;18.734;2023-06-24T03:45:07;99650.06;;;16.25;100.00
51759;BME280;66684;47.568;18.734;2023-06-24T03:47:33;99650.78;;;16.17;100.00
51759;BME280;66684;47.568;18.734;2023-06-24T03:49:59;99654.41;;;16.26;100.00
51759;BME280;66684;47.568;18.734;2023-06-24T03:52:25;99645.63;;;16.21;100.00
51759;BME280;66684;47.568;18.734;2023-06-24T03:54:51;99646.72;;;16.32;100.00
51759;BME280;66684;47.568;18.734;2023-06-24T03:57:17;99656.16;;;16.27;100.00
51759;BME280;66684;47.568;18.734;2023-06-24T03:59:43;99654.38;;;16.23;100.00
51759;BME280;66684;47.568;18.734;2023-06-24T04:02:09;99660.59;;;16.29;100.00
51759;BME280;66684;47.568;18.734;2023-06-24T04:04:35;99669.41;;;16.37;100.00
51759;BME280;66684;47.568;18.734;2023-06-24T04:07:02;99672.16;;;16.45;100.00
51759;BME280;66684;47.568;18.734;2023-06-24T04:09:29;99679.09;;;16.43;100.00
51759;BME280;66684;47.568;18.734;2023-06-24T04:11:55;99699.00;;;16.39;100.00
51759;BME280;66684;47.568;18.734;2023-06-24T04:14:21;99703.78;;;16.63;100.00
51759;BME280;66684;47.568;18.734;2023-06-24T04:16:47;99710.81;;;16.67;100.00
51759;BME280;66684;47.568;18.734;2023-06-24T04:19:13;99703.69;;;16.57;100.00
51759;BME280;66684;47.568;18.734;2023-06-24T04:21:39;99696.94;;;16.68;100.00
51759;BME280;66684;47.568;18.734;2023-06-24T04:24:05;99686.41;;;16.65;100.00
51759;BME280;66684;47.568;18.734;2023-06-24T04:26:31;99681.34;;;16.71;100.00
51759;BME280;66684;47.568;18.734;2023-06-24T04:28:56;99688.50;;;16.83;100.00
51759;BME280;66684;47.568;18.734;2023-06-24T04:31:22;99691.41;;;17.02;100.00
51759;BME280;66684;47.568;18.734;2023-06-24T04:33:48;99700.84;;;16.92;100.00
51759;BME280;66684;47.568;18.734;2023-06-24T04:36:14;99699.09;;;16.91;100.00
51759;BME280;66684;47.568;18.734;2023-06-24T04:38:40;99691.06;;;16.80;100.00
51759;BME280;66684;47.568;18.734;2023-06-24T04:41:06;99685.03;;;16.83;100.00
51759;BME280;66684;47.568;18.734;2023-06-24T04:43:32;99680.75;;;16.86;100.00
51759;BME280;66684;47.568;18.734;2023-06-24T04:45:57;99692.94;;;16.89;100.00
51759;BME280;66684;47.568;18.734;2023-06-24T04:48:24;99699.78;;;16.81;100.00
51759;BME280;66684;47.568;18.734;2023-06-24T04:50:50;99718.16;;;16.87;100.00
51759;BME280;66684;47.568;18.734;2023-06-24T04:53:16;99711.28;;;16.92;100.00
51759;BME280;66684;47.568;18.734;2023-06-24T04:55:42;99705.31;;;16.99;100.00
51759;BME280;66684;47.568;18.734;2023-06-24T04:58:07;99709.47;;;16.89;100.00
51759;BME280;66684;47.568;18.734;2023-06-24T05:00:34;99708.81;;;17.01;100.00
51759;BME280;66684;47.568;18.734;2023-06-24T05:03:00;99706.31;;;17.09;100.00
51759;BME280;66684;47.568;18.734;2023-06-24T05:05:26;99703.22;;;17.33;100.00
51759;BME280;66684;47.568;18.734;2023-06-24T05:07:52;99706.69;;;17.32;100.00
51759;BME280;66684;47.568;18.734;2023-06-24T05:10:18;99706.81;;;17.41;100.00
51759;BME280;66684;47.568;18.734;2023-06-24T05:12:44;99712.97;;;17.46;100.00
51759;BME280;66684;47.568;18.734;2023-06-24T05:15:10;99702.78;;;17.61;100.00
51759;BME280;66684;47.568;18.734;2023-06-24T05:17:36;99707.06;;;17.59;100.00
51759;BME280;66684;47.568;18.734;2023-06-24T05:20:03;99697.56;;;17.64;100.00
51759;BME280;66684;47.568;18.734;2023-06-24T05:22:29;99688.91;;;17.67;100.00
51759;BME280;66684;47.568;18.734;2023-06-24T05:24:55;99688.87;;;17.65;100.00
51759;BME280;66684;47.568;18.734;2023-06-24T05:27:20;99679.56;;;17.83;100.00
51759;BME280;66684;47.568;18.734;2023-06-24T05:29:46;99687.31;;;17.78;100.00
51759;BME280;66684;47.568;18.734;2023-06-24T05:32:13;99679.59;;;17.86;100.00
51759;BME280;66684;47.568;18.734;2023-06-24T05:34:39;99684.78;;;17.83;100.00
51759;BME280;66684;47.568;18.734;2023-06-24T05:37:05;99690.00;;;17.83;100.00
51759;BME280;66684;47.568;18.734;2023-06-24T05:39:31;99699.75;;;17.96;100.00
51759;BME280;66684;47.568;18.734;2023-06-24T05:41:57;99705.97;;;18.04;100.00
51759;BME280;66684;47.568;18.734;2023-06-24T05:44:23;99711.25;;;18.10;100.00
51759;BME280;66684;47.568;18.734;2023-06-24T05:46:49;99713.81;;;18.04;100.00
51759;BME280;66684;47.568;18.734;2023-06-24T05:49:15;99704.41;;;18.21;100.00
51759;BME280;66684;47.568;18.734;2023-06-24T05:51:41;99707.75;;;18.08;100.00
51759;BME280;66684;47.568;18.734;2023-06-24T05:54:07;99707.03;;;18.21;100.00
51759;BME280;66684;47.568;18.734;2023-06-24T05:56:33;99714.94;;;18.27;100.00
51759;BME280;66684;47.568;18.734;2023-06-24T05:58:59;99725.47;;;18.33;100.00
51759;BME280;66684;47.568;18.734;2023-06-24T06:01:25;99721.13;;;18.32;100.00
51759;BME280;66684;47.568;18.734;2023-06-24T06:03:51;99738.75;;;18.50;100.00
51759;BME280;66684;47.568;18.734;2023-06-24T06:06:17;99731.78;;;18.51;100.00
51759;BME280;66684;47.568;18.734;2023-06-24T06:08:43;99740.75;;;18.71;100.00
51759;BME280;66684;47.568;18.734;2023-06-24T06:11:09;99738.81;;;18.58;100.00
51759;BME280;66684;47.568;18.734;2023-06-24T06:13:35;99736.38;;;18.69;100.00
51759;BME280;66684;47.568;18.734;2023-06-24T06:16:01;99736.50;;;18.82;100.00
51759;BME280;66684;47.568;18.734;2023-06-24T06:18:27;99743.53;;;18.90;100.00
51759;BME280;66684;47.568;18.734;2023-06-24T06:20:53;99745.44;;;19.06;100.00
51759;BME280;66684;47.568;18.734;2023-06-24T06:23:19;99734.03;;;18.99;100.00
51759;BME280;66684;47.568;18.734;2023-06-24T06:25:45;99743.69;;;19.05;100.00
51759;BME280;66684;47.568;18.734;2023-06-24T06:28:11;99739.16;;;18.89;100.00
51759;BME280;66684;47.568;18.734;2023-06-24T06:30:38;99734.91;;;19.00;100.00
51759;BME280;66684;47.568;18.734;2023-06-24T06:33:04;99737.47;;;18.97;100.00
51759;BME280;66684;47.568;18.734;2023-06-24T06:35:30;99748.94;;;19.08;100.00
51759;BME280;66684;47.568;18.734;2023-06-24T06:37:57;99747.19;;;19.05;100.00
51759;BME280;66684;47.568;18.734;2023-06-24T06:40:23;99753.56;;;19.38;100.00
51759;BME280;66684;47.568;18.734;2023-06-24T06:42:49;99762.41;;;19.57;100.00
51759;BME280;66684;47.568;18.734;2023-06-24T06:45:15;99752.72;;;19.45;100.00
51759;BME280;66684;47.568;18.734;2023-06-24T06:47:41;99746.66;;;19.54;100.00
51759;BME280;66684;47.568;18.734;2023-06-24T06:50:07;99747.69;;;19.68;100.00
51759;BME280;66684;47.568;18.734;2023-06-24T06:52:34;99759.22;;;20.01;100.00
51759;BME280;66684;47.568;18.734;2023-06-24T06:54:59;99763.66;;;20.14;100.00
51759;BME280;66684;47.568;18.734;2023-06-24T06:57:25;99755.81;;;20.21;100.00
51759;BME280;66684;47.568;18.734;2023-06-24T06:59:58;99754.84;;;20.00;100.00
51759;BME280;66684;47.568;18.734;2023-06-24T07:02:24;99750.44;;;19.92;100.00
51759;BME280;66684;47.568;18.734;2023-06-24T07:04:50;99755.75;;;20.11;100.00
51759;BME280;66684;47.568;18.734;2023-06-24T07:07:17;99749.72;;;20.33;100.00
51759;BME280;66684;47.568;18.734;2023-06-24T07:09:43;99747.97;;;20.32;100.00
51759;BME280;66684;47.568;18.734;2023-06-24T07:12:09;99750.59;;;20.25;100.00
51759;BME280;66684;47.568;18.734;2023-06-24T07:14:35;99745.31;;;20.29;100.00
51759;BME280;66684;47.568;18.734;2023-06-24T07:17:00;99749.75;;;20.39;100.00
51759;BME280;66684;47.568;18.734;2023-06-24T07:19:26;99751.44;;;20.25;100.00
51759;BME280;66684;47.568;18.734;2023-06-24T07:21:52;99757.69;;;20.45;100.00
51759;BME280;66684;47.568;18.734;2023-06-24T07:24:18;99755.84;;;20.35;100.00
51759;BME280;66684;47.568;18.734;2023-06-24T07:26:44;99765.47;;;20.36;100.00
51759;BME280;66684;47.568;18.734;2023-06-24T07:29:10;99768.16;;;20.48;100.00
51759;BME280;66684;47.568;18.734;2023-06-24T07:31:36;99770.78;;;20.47;100.00
51759;BME280;66684;47.568;18.734;2023-06-24T07:34:02;99762.00;;;20.37;100.00
51759;BME280;66684;47.568;18.734;2023-06-24T07:36:28;99761.09;;;20.31;100.00
51759;BME280;66684;47.568;18.734;2023-06-24T07:38:54;99762.94;;;20.52;100.00
51759;BME280;66684;47.568;18.734;2023-06-24T07:41:20;99758.53;;;20.47;100.00
51759;BME280;66684;47.568;18.734;2023-06-24T07:43:45;99764.72;;;20.62;98.71
51759;BME280;66684;47.568;18.734;2023-06-24T07:46:11;99775.25;;;20.77;100.00
51759;BME280;66684;47.568;18.734;2023-06-24T07:48:37;99774.38;;;20.69;100.00
51759;BME280;66684;47.568;18.734;2023-06-24T07:51:03;99777.94;;;21.14;99.85
51759;BME280;66684;47.568;18.734;2023-06-24T07:53:29;99775.34;;;21.44;97.91
51759;BME280;66684;47.568;18.734;2023-06-24T07:55:55;99780.56;;;21.64;100.00
51759;BME280;66684;47.568;18.734;2023-06-24T07:58:21;99772.69;;;21.63;98.05
51759;BME280;66684;47.568;18.734;2023-06-24T08:00:47;99763.03;;;21.69;96.28
51759;BME280;66684;47.568;18.734;2023-06-24T08:03:13;99765.63;;;21.74;97.47
51759;BME280;66684;47.568;18.734;2023-06-24T08:05:40;99776.19;;;21.69;95.18
51759;BME280;66684;47.568;18.734;2023-06-24T08:08:06;99786.69;;;21.68;94.39
51759;BME280;66684;47.568;18.734;2023-06-24T08:10:32;99780.53;;;21.89;97.81
51759;BME280;66684;47.568;18.734;2023-06-24T08:12:58;99777.06;;;21.62;96.28
51759;BME280;66684;47.568;18.734;2023-06-24T08:15:24;99776.16;;;21.68;97.73
51759;BME280;66684;47.568;18.734;2023-06-24T08:17:54;99787.56;;;21.76;93.82
51759;BME280;66684;47.568;18.734;2023-06-24T08:20:21;99777.91;;;21.81;93.37
51759;BME280;66684;47.568;18.734;2023-06-24T08:22:47;99782.31;;;21.82;92.69
51759;BME280;66684;47.568;18.734;2023-06-24T08:25:13;99779.59;;;21.99;94.69
51759;BME280;66684;47.568;18.734;2023-06-24T08:27:39;99777.88;;;21.87;93.44
51759;BME280;66684;47.568;18.734;2023-06-24T08:30:06;99778.78;;;21.74;90.88
51759;BME280;66684;47.568;18.734;2023-06-24T08:32:32;99785.84;;;21.75;93.89
51759;BME280;66684;47.568;18.734;2023-06-24T08:34:58;99774.44;;;21.58;94.72
51759;BME280;66684;47.568;18.734;2023-06-24T08:37:24;99784.06;;;21.77;94.28
51759;BME280;66684;47.568;18.734;2023-06-24T08:39:50;99775.22;;;22.08;92.94
51759;BME280;66684;47.568;18.734;2023-06-24T08:42:16;99779.56;;;22.23;90.55
51759;BME280;66684;47.568;18.734;2023-06-24T08:44:42;99784.00;;;22.01;91.73
51759;BME280;66684;47.568;18.734;2023-06-24T08:47:07;99784.81;;;22.25;92.37
51759;BME280;66684;47.568;18.734;2023-06-24T08:50:01;99787.47;;;22.19;87.23
51759;BME280;66684;47.568;18.734;2023-06-24T08:52:26;99796.25;;;22.21;88.86
51759;BME280;66684;47.568;18.734;2023-06-24T08:54:58;99795.34;;;22.25;87.72
51759;BME280;66684;47.568;18.734;2023-06-24T08:57:24;99807.62;;;22.29;90.29
51759;BME280;66684;47.568;18.734;2023-06-24T08:59:50;99807.69;;;22.20;89.34
51759;BME280;66684;47.568;18.734;2023-06-24T09:02:16;99799.62;;;22.49;85.92
51759;BME280;66684;47.568;18.734;2023-06-24T09:04:42;99787.41;;;22.31;91.47
51759;BME280;66684;47.568;18.734;2023-06-24T09:07:08;99797.88;;;22.49;89.31
51759;BME280;66684;47.568;18.734;2023-06-24T09:09:42;99796.97;;;22.59;87.48
51759;BME280;66684;47.568;18.734;2023-06-24T09:12:11;99798.72;;;22.54;89.22
51759;BME280;66684;47.568;18.734;2023-06-24T09:14:38;99798.69;;;22.70;88.42
51759;BME280;66684;47.568;18.734;2023-06-24T09:17:04;99796.88;;;22.75;85.07
51759;BME280;66684;47.568;18.734;2023-06-24T09:19:30;99805.72;;;22.61;86.45
51759;BME280;66684;47.568;18.734;2023-06-24T09:24:28;99798.47;;;23.08;89.12
51759;BME280;66684;47.568;18.734;2023-06-24T09:26:56;99804.47;;;23.24;86.40
51759;BME280;66684;47.568;18.734;2023-06-24T09:29:28;99789.81;;;22.89;85.27
51759;BME280;66684;47.568;18.734;2023-06-24T09:31:54;99776.59;;;22.92;83.45
51759;BME280;66684;47.568;18.734;2023-06-24T09:34:22;99790.75;;;22.76;84.08
51759;BME280;66684;47.568;18.734;2023-06-24T09:36:53;99801.84;;;23.27;86.75
51759;BME280;66684;47.568;18.734;2023-06-24T09:39:20;99803.75;;;23.03;86.20
51759;BME280;66684;47.568;18.734;2023-06-24T09:41:51;99805.81;;;22.46;86.66
51759;BME280;66684;47.568;18.734;2023-06-24T09:44:17;99803.75;;;23.00;87.37
51759;BME280;66684;47.568;18.734;2023-06-24T09:46:46;99801.97;;;23.10;82.13
51759;BME280;66684;47.568;18.734;2023-06-24T09:49:12;99802.72;;;23.27;82.01
51759;BME280;66684;47.568;18.734;2023-06-24T09:51:40;99798.53;;;22.94;83.74
51759;BME280;66684;47.568;18.734;2023-06-24T09:54:09;99794.97;;;23.07;84.40
51759;BME280;66684;47.568;18.734;2023-06-24T09:56:36;99799.50;;;22.75;83.97
51759;BME280;66684;47.568;18.734;2023-06-24T09:59:05;99791.62;;;22.72;83.46
51759;BME280;66684;47.568;18.734;2023-06-24T10:01:33;99798.50;;;23.00;82.44
51759;BME280;66684;47.568;18.734;2023-06-24T10:04:01;99781.66;;;23.23;82.99
51759;BME280;66684;47.568;18.734;2023-06-24T10:06:28;99794.03;;;23.11;84.18
51759;BME280;66684;47.568;18.734;2023-06-24T10:08:54;99778.41;;;22.79;83.72
51759;BME280;66684;47.568;18.734;2023-06-24T10:11:21;99781.06;;;22.78;84.92
51759;BME280;66684;47.568;18.734;2023-06-24T10:13:46;99782.94;;;22.54;83.52
51759;BME280;66684;47.568;18.734;2023-06-24T10:16:12;99777.53;;;22.88;83.54
51759;BME280;66684;47.568;18.734;2023-06-24T10:18:39;99773.81;;;23.13;82.41
51759;BME280;66684;47.568;18.734;2023-06-24T10:21:08;99778.34;;;22.96;81.53
51759;BME280;66684;47.568;18.734;2023-06-24T10:23:52;99774.84;;;22.93;83.45
51759;BME280;66684;47.568;18.734;2023-06-24T10:26:29;99763.38;;;22.98;82.26
51759;BME280;66684;47.568;18.734;2023-06-24T10:37:05;99757.44;;;23.75;78.73
51759;BME280;66684;47.568;18.734;2023-06-24T10:39:55;99759.72;;;23.16;80.83
51759;BME280;66684;47.568;18.734;2023-06-24T10:44:58;99750.53;;;23.64;84.43
51759;BME280;66684;47.568;18.734;2023-06-24T10:47:25;99746.16;;;23.59;85.09
51759;BME280;66684;47.568;18.734;2023-06-24T10:49:52;99750.44;;;23.74;78.05
51759;BME280;66684;47.568;18.734;2023-06-24T10:52:22;99752.44;;;23.44;80.95
51759;BME280;66684;47.568;18.734;2023-06-24T10:54:49;99764.47;;;23.79;81.49
51759;BME280;66684;47.568;18.734;2023-06-24T10:57:20;99762.78;;;23.72;80.34
51759;BME280;66684;47.568;18.734;2023-06-24T10:59:48;99760.22;;;23.64;82.19
51759;BME280;66684;47.568;18.734;2023-06-24T11:02:18;99780.25;;;23.83;82.94
51759;BME280;66684;47.568;18.734;2023-06-24T11:04:45;99770.25;;;23.21;83.67
51759;BME280;66684;47.568;18.734;2023-06-24T11:07:12;99761.09;;;23.61;80.79
51759;BME280;66684;47.568;18.734;2023-06-24T11:09:40;99760.13;;;23.72;80.84
51759;BME280;66684;47.568;18.734;2023-06-24T11:12:08;99769.94;;;23.54;83.47
51759;BME280;66684;47.568;18.734;2023-06-24T11:14:35;99775.19;;;23.63;82.95
51759;BME280;66684;47.568;18.734;2023-06-24T11:17:02;99766.31;;;23.67;84.01
51759;BME280;66684;47.568;18.734;2023-06-24T11:19:29;99772.81;;;24.17;83.35
51759;BME280;66684;47.568;18.734;2023-06-24T11:21:59;99772.81;;;24.17;83.40
51759;BME280;66684;47.568;18.734;2023-06-24T11:24:27;99767.75;;;23.99;80.60
51759;BME280;66684;47.568;18.734;2023-06-24T11:26:53;99766.72;;;24.12;80.33
51759;BME280;66684;47.568;18.734;2023-06-24T11:29:19;99767.09;;;23.79;82.30
51759;BME280;66684;47.568;18.734;2023-06-24T11:31:45;99759.59;;;24.19;85.66
51759;BME280;66684;47.568;18.734;2023-06-24T11:34:11;99762.53;;;23.96;81.19
51759;BME280;66684;47.568;18.734;2023-06-24T11:36:37;99765.78;;;24.16;80.73
51759;BME280;66684;47.568;18.734;2023-06-24T11:39:04;99748.56;;;24.56;78.91
51759;BME280;66684;47.568;18.734;2023-06-24T11:41:30;99749.03;;;24.85;75.45
51759;BME280;66684;47.568;18.734;2023-06-24T11:43:59;99747.19;;;24.26;78.80
51759;BME280;66684;47.568;18.734;2023-06-24T11:46:26;99743.66;;;24.27;74.99
51759;BME280;66684;47.568;18.734;2023-06-24T11:49:02;99743.56;;;24.36;77.65
51759;BME280;66684;47.568;18.734;2023-06-24T11:51:28;99745.28;;;24.38;74.32
51759;BME280;66684;47.568;18.734;2023-06-24T11:53:58;99742.13;;;24.77;79.01
51759;BME280;66684;47.568;18.734;2023-06-24T11:56:41;99747.69;;;24.58;77.47
51759;BME280;66684;47.568;18.734;2023-06-24T11:59:20;99743.53;;;24.99;79.88
51759;BME280;66684;47.568;18.734;2023-06-24T12:01:57;99749.09;;;24.81;79.37
51759;BME280;66684;47.568;18.734;2023-06-24T12:04:33;99749.31;;;24.67;79.88
51759;BME280;66684;47.568;18.734;2023-06-24T12:06:59;99735.47;;;24.48;80.47
51759;BME280;66684;47.568;18.734;2023-06-24T12:09:26;99732.88;;;24.45;78.71
51759;BME280;66684;47.568;18.734;2023-06-24T12:11:52;99732.09;;;24.37;81.29
51759;BME280;66684;47.568;18.734;2023-06-24T12:14:18;99725.91;;;24.41;80.00
51759;BME280;66684;47.568;18.734;2023-06-24T12:16:44;99723.34;;;24.35;80.01
51759;BME280;66684;47.568;18.734;2023-06-24T12:19:10;99715.66;;;24.13;81.54
51759;BME280;66684;47.568;18.734;2023-06-24T12:21:37;99714.38;;;24.45;79.47
51759;BME280;66684;47.568;18.734;2023-06-24T12:24:04;99726.56;;;24.55;79.30
51759;BME280;66684;47.568;18.734;2023-06-24T12:26:31;99719.81;;;24.33;79.37
51759;BME280;66684;47.568;18.734;2023-06-24T12:28:57;99726.94;;;24.25;78.29
51759;BME280;66684;47.568;18.734;2023-06-24T12:31:23;99723.66;;;24.09;79.17
51759;BME280;66684;47.568;18.734;2023-06-24T12:33:51;99730.91;;;23.90;82.17
51759;BME280;66684;47.568;18.734;2023-06-24T12:36:18;99718.37;;;24.07;84.74
51759;BME280;66684;47.568;18.734;2023-06-24T12:38:44;99711.47;;;23.97;85.14
51759;BME280;66684;47.568;18.734;2023-06-24T12:41:10;99709.09;;;24.45;84.04
51759;BME280;66684;47.568;18.734;2023-06-24T12:43:36;99717.66;;;24.62;77.98
51759;BME280;66684;47.568;18.734;2023-06-24T12:46:02;99706.66;;;24.30;80.64
51759;BME280;66684;47.568;18.734;2023-06-24T12:48:28;99707.94;;;23.98;84.33
51759;BME280;66684;47.568;18.734;2023-06-24T12:50:54;99701.41;;;24.25;80.12
51759;BME280;66684;47.568;18.734;2023-06-24T12:53:21;99693.50;;;24.27;79.90
51759;BME280;66684;47.568;18.734;2023-06-24T12:55:47;99691.09;;;24.08;80.17
51759;BME280;66684;47.568;18.734;2023-06-24T12:58:18;99704.69;;;23.75;81.66
51759;BME280;66684;47.568;18.734;2023-06-24T13:00:44;99696.81;;;23.72;86.13
51759;BME280;66684;47.568;18.734;2023-06-24T13:03:10;99701.41;;;23.51;86.63
51759;BME280;66684;47.568;18.734;2023-06-24T13:05:36;99707.62;;;23.46;86.74
51759;BME280;66684;47.568;18.734;2023-06-24T13:08:02;99701.66;;;24.08;81.95